sensor_id;sensor_type;location;lat;lon;timestamp;temperature;humidity
55135;DHT22;41031;44.750;11.308;2023-05-29T00:01:46;19.50;91.10
55135;DHT22;41031;44.750;11.308;2023-05-29T00:04:13;19.40;91.10
55135;DHT22;41031;44.750;11.308;2023-05-29T00:06:40;19.40;91.10
55135;DHT22;41031;44.750;11.308;2023-05-29T00:09:07;19.30;91.20
55135;DHT22;41031;44.750;11.308;2023-05-29T00:11:34;19.30;91.30
55135;DHT22;41031;44.750;11.308;2023-05-29T00:14:02;19.30;91.30
55135;DHT22;41031;44.750;11.308;2023-05-29T00:16:29;19.30;91.40
55135;DHT22;41031;44.750;11.308;2023-05-29T00:18:56;19.20;91.40
55135;DHT22;41031;44.750;11.308;2023-05-29T00:21:24;19.20;91.50
55135;DHT22;41031;44.750;11.308;2023-05-29T00:23:52;19.20;91.60
55135;DHT22;41031;44.750;11.308;2023-05-29T00:26:19;19.10;91.60
55135;DHT22;41031;44.750;11.308;2023-05-29T00:28:52;19.10;91.70
55135;DHT22;41031;44.750;11.308;2023-05-29T00:31:19;19.10;91.80
55135;DHT22;41031;44.750;11.308;2023-05-29T00:33:47;19.10;91.80
55135;DHT22;41031;44.750;11.308;2023-05-29T00:36:15;19.10;91.90
55135;DHT22;41031;44.750;11.308;2023-05-29T00:38:42;19.00;91.90
55135;DHT22;41031;44.750;11.308;2023-05-29T00:41:16;19.00;91.90
55135;DHT22;41031;44.750;11.308;2023-05-29T00:43:43;19.00;92.00
55135;DHT22;41031;44.750;11.308;2023-05-29T00:46:13;19.00;92.00
55135;DHT22;41031;44.750;11.308;2023-05-29T00:48:42;18.90;91.80
55135;DHT22;41031;44.750;11.308;2023-05-29T00:51:10;18.90;91.80
55135;DHT22;41031;44.750;11.308;2023-05-29T00:53:41;18.80;91.80
55135;DHT22;41031;44.750;11.308;2023-05-29T00:56:09;18.80;91.90
55135;DHT22;41031;44.750;11.308;2023-05-29T00:58:36;18.80;92.00
55135;DHT22;41031;44.750;11.308;2023-05-29T01:01:04;18.80;92.10
55135;DHT22;41031;44.750;11.308;2023-05-29T01:03:31;18.80;92.20
55135;DHT22;41031;44.750;11.308;2023-05-29T01:06:02;18.80;92.30
55135;DHT22;41031;44.750;11.308;2023-05-29T01:08:30;18.80;92.30
55135;DHT22;41031;44.750;11.308;2023-05-29T01:11:08;18.80;92.30
55135;DHT22;41031;44.750;11.308;2023-05-29T01:13:41;18.70;92.40
55135;DHT22;41031;44.750;11.308;2023-05-29T01:29:06;18.60;92.60
55135;DHT22;41031;44.750;11.308;2023-05-29T01:31:34;18.60;92.60
55135;DHT22;41031;44.750;11.308;2023-05-29T01:34:02;18.60;92.50
55135;DHT22;41031;44.750;11.308;2023-05-29T01:36:30;18.60;92.50
55135;DHT22;41031;44.750;11.308;2023-05-29T01:38:58;18.60;92.60
55135;DHT22;41031;44.750;11.308;2023-05-29T01:41:26;18.60;92.70
55135;DHT22;41031;44.750;11.308;2023-05-29T01:43:53;18.60;93.10
55135;DHT22;41031;44.750;11.308;2023-05-29T01:46:22;18.60;92.90
55135;DHT22;41031;44.750;11.308;2023-05-29T01:48:53;18.50;93.00
55135;DHT22;41031;44.750;11.308;2023-05-29T01:51:23;18.60;93.00
55135;DHT22;41031;44.750;11.308;2023-05-29T01:53:50;18.50;92.80
55135;DHT22;41031;44.750;11.308;2023-05-29T01:56:18;18.50;92.80
55135;DHT22;41031;44.750;11.308;2023-05-29T01:58:45;18.50;92.80
55135;DHT22;41031;44.750;11.308;2023-05-29T02:01:13;18.50;92.80
55135;DHT22;41031;44.750;11.308;2023-05-29T02:03:40;18.40;92.90
55135;DHT22;41031;44.750;11.308;2023-05-29T02:06:07;18.40;92.90
55135;DHT22;41031;44.750;11.308;2023-05-29T02:08:34;18.40;93.00
55135;DHT22;41031;44.750;11.308;2023-05-29T02:11:01;18.40;93.00
55135;DHT22;41031;44.750;11.308;2023-05-29T02:13:29;18.40;93.00
55135;DHT22;41031;44.750;11.308;2023-05-29T02:15:56;18.40;93.10
55135;DHT22;41031;44.750;11.308;2023-05-29T02:18:23;18.40;93.00
55135;DHT22;41031;44.750;11.308;2023-05-29T02:20:51;18.40;93.00
55135;DHT22;41031;44.750;11.308;2023-05-29T02:23:21;18.40;93.00
55135;DHT22;41031;44.750;11.308;2023-05-29T02:25:50;18.40;92.90
55135;DHT22;41031;44.750;11.308;2023-05-29T02:28:17;18.30;92.80
55135;DHT22;41031;44.750;11.308;2023-05-29T02:30:44;18.20;92.90
55135;DHT22;41031;44.750;11.308;2023-05-29T02:33:11;18.20;93.10
55135;DHT22;41031;44.750;11.308;2023-05-29T02:35:38;18.20;93.30
55135;DHT22;41031;44.750;11.308;2023-05-29T02:38:05;18.20;93.40
55135;DHT22;41031;44.750;11.308;2023-05-29T02:40:32;18.20;93.40
55135;DHT22;41031;44.750;11.308;2023-05-29T02:42:59;18.20;93.40
55135;DHT22;41031;44.750;11.308;2023-05-29T02:45:26;18.20;93.40
55135;DHT22;41031;44.750;11.308;2023-05-29T02:47:53;18.20;93.50
55135;DHT22;41031;44.750;11.308;2023-05-29T02:50:20;18.10;93.60
55135;DHT22;41031;44.750;11.308;2023-05-29T02:52:47;18.10;93.60
55135;DHT22;41031;44.750;11.308;2023-05-29T02:55:15;18.10;93.50
55135;DHT22;41031;44.750;11.308;2023-05-29T02:57:42;18.10;93.50
55135;DHT22;41031;44.750;11.308;2023-05-29T03:00:09;18.10;93.60
55135;DHT22;41031;44.750;11.308;2023-05-29T03:02:38;18.00;93.50
55135;DHT22;41031;44.750;11.308;2023-05-29T03:05:05;18.00;93.50
55135;DHT22;41031;44.750;11.308;2023-05-29T03:07:33;17.90;93.40
55135;DHT22;41031;44.750;11.308;2023-05-29T03:10:01;17.90;93.40
55135;DHT22;41031;44.750;11.308;2023-05-29T03:12:28;17.80;93.30
55135;DHT22;41031;44.750;11.308;2023-05-29T03:14:56;17.80;93.40
55135;DHT22;41031;44.750;11.308;2023-05-29T03:17:25;17.80;93.40
55135;DHT22;41031;44.750;11.308;2023-05-29T03:19:53;17.80;93.50
55135;DHT22;41031;44.750;11.308;2023-05-29T03:22:20;17.80;93.60
55135;DHT22;41031;44.750;11.308;2023-05-29T03:24:47;17.80;93.60
55135;DHT22;41031;44.750;11.308;2023-05-29T03:27:14;17.80;93.60
55135;DHT22;41031;44.750;11.308;2023-05-29T03:29:43;17.80;93.70
55135;DHT22;41031;44.750;11.308;2023-05-29T03:32:11;17.80;93.70
55135;DHT22;41031;44.750;11.308;2023-05-29T03:34:38;17.80;93.70
55135;DHT22;41031;44.750;11.308;2023-05-29T03:37:06;17.80;93.70
55135;DHT22;41031;44.750;11.308;2023-05-29T03:39:34;17.80;93.80
55135;DHT22;41031;44.750;11.308;2023-05-29T03:42:04;17.80;93.80
55135;DHT22;41031;44.750;11.308;2023-05-29T03:44:31;17.80;93.80
55135;DHT22;41031;44.750;11.308;2023-05-29T03:46:59;17.80;93.90
55135;DHT22;41031;44.750;11.308;2023-05-29T03:49:26;17.80;94.00
55135;DHT22;41031;44.750;11.308;2023-05-29T03:51:53;17.80;94.00
55135;DHT22;41031;44.750;11.308;2023-05-29T03:54:20;17.80;94.00
55135;DHT22;41031;44.750;11.308;2023-05-29T03:56:47;17.80;94.10
55135;DHT22;41031;44.750;11.308;2023-05-29T03:59:16;17.80;94.00
55135;DHT22;41031;44.750;11.308;2023-05-29T04:01:46;17.80;94.10
55135;DHT22;41031;44.750;11.308;2023-05-29T04:04:13;17.90;94.20
55135;DHT22;41031;44.750;11.308;2023-05-29T04:06:40;17.90;94.20
55135;DHT22;41031;44.750;11.308;2023-05-29T04:09:08;17.90;94.20
55135;DHT22;41031;44.750;11.308;2023-05-29T04:11:35;17.90;94.10
55135;DHT22;41031;44.750;11.308;2023-05-29T04:14:02;18.00;94.20
55135;DHT22;41031;44.750;11.308;2023-05-29T04:16:29;17.90;94.20
55135;DHT22;41031;44.750;11.308;2023-05-29T04:18:56;18.00;94.20
55135;DHT22;41031;44.750;11.308;2023-05-29T04:21:27;18.00;94.20
55135;DHT22;41031;44.750;11.308;2023-05-29T04:23:54;18.10;94.20
55135;DHT22;41031;44.750;11.308;2023-05-29T04:26:22;18.10;94.20
55135;DHT22;41031;44.750;11.308;2023-05-29T04:28:53;18.20;94.20
55135;DHT22;41031;44.750;11.308;2023-05-29T04:31:25;18.20;94.20
55135;DHT22;41031;44.750;11.308;2023-05-29T04:33:53;18.30;94.20
55135;DHT22;41031;44.750;11.308;2023-05-29T04:36:23;18.30;94.20
55135;DHT22;41031;44.750;11.308;2023-05-29T04:39:02;18.40;94.40
55135;DHT22;41031;44.750;11.308;2023-05-29T04:41:29;18.50;94.50
55135;DHT22;41031;44.750;11.308;2023-05-29T04:43:59;18.50;94.50
55135;DHT22;41031;44.750;11.308;2023-05-29T04:46:33;18.60;94.60
55135;DHT22;41031;44.750;11.308;2023-05-29T04:49:03;18.60;94.60
55135;DHT22;41031;44.750;11.308;2023-05-29T04:51:31;18.70;94.50
55135;DHT22;41031;44.750;11.308;2023-05-29T04:53:58;18.80;94.50
55135;DHT22;41031;44.750;11.308;2023-05-29T04:56:25;18.90;94.50
55135;DHT22;41031;44.750;11.308;2023-05-29T04:58:54;18.90;94.50
55135;DHT22;41031;44.750;11.308;2023-05-29T05:01:21;19.00;94.40
55135;DHT22;41031;44.750;11.308;2023-05-29T05:03:48;19.10;94.40
55135;DHT22;41031;44.750;11.308;2023-05-29T05:06:15;19.20;94.30
55135;DHT22;41031;44.750;11.308;2023-05-29T05:08:43;19.30;94.30
55135;DHT22;41031;44.750;11.308;2023-05-29T05:11:11;19.30;94.30
55135;DHT22;41031;44.750;11.308;2023-05-29T05:13:39;19.40;94.20
55135;DHT22;41031;44.750;11.308;2023-05-29T05:16:06;19.50;94.10
55135;DHT22;41031;44.750;11.308;2023-05-29T05:18:35;19.60;94.10
55135;DHT22;41031;44.750;11.308;2023-05-29T05:21:05;19.80;94.00
55135;DHT22;41031;44.750;11.308;2023-05-29T05:23:34;19.90;93.70
55135;DHT22;41031;44.750;11.308;2023-05-29T05:26:22;20.00;93.50
55135;DHT22;41031;44.750;11.308;2023-05-29T05:28:49;20.10;93.40
55135;DHT22;41031;44.750;11.308;2023-05-29T05:31:16;20.20;93.30
55135;DHT22;41031;44.750;11.308;2023-05-29T05:33:43;20.30;93.30
55135;DHT22;41031;44.750;11.308;2023-05-29T05:36:10;20.40;93.30
55135;DHT22;41031;44.750;11.308;2023-05-29T05:38:39;20.50;92.80
55135;DHT22;41031;44.750;11.308;2023-05-29T05:41:07;20.60;92.20
55135;DHT22;41031;44.750;11.308;2023-05-29T05:43:34;20.80;91.90
55135;DHT22;41031;44.750;11.308;2023-05-29T05:46:11;20.80;91.50
55135;DHT22;41031;44.750;11.308;2023-05-29T05:48:40;20.90;91.30
55135;DHT22;41031;44.750;11.308;2023-05-29T05:51:08;21.00;91.00
55135;DHT22;41031;44.750;11.308;2023-05-29T05:53:36;21.10;90.30
55135;DHT22;41031;44.750;11.308;2023-05-29T05:56:03;21.20;90.00
55135;DHT22;41031;44.750;11.308;2023-05-29T05:58:31;21.20;90.00
55135;DHT22;41031;44.750;11.308;2023-05-29T06:00:58;21.30;90.20
55135;DHT22;41031;44.750;11.308;2023-05-29T06:03:26;21.40;90.10
55135;DHT22;41031;44.750;11.308;2023-05-29T06:06:00;21.60;89.90
55135;DHT22;41031;44.750;11.308;2023-05-29T06:08:27;21.60;89.10
55135;DHT22;41031;44.750;11.308;2023-05-29T06:10:55;21.70;87.50
55135;DHT22;41031;44.750;11.308;2023-05-29T06:13:23;21.70;87.10
55135;DHT22;41031;44.750;11.308;2023-05-29T06:15:56;21.80;87.40
55135;DHT22;41031;44.750;11.308;2023-05-29T06:18:23;21.90;87.50
55135;DHT22;41031;44.750;11.308;2023-05-29T06:20:51;21.90;86.80
55135;DHT22;41031;44.750;11.308;2023-05-29T06:23:18;22.00;86.50
55135;DHT22;41031;44.750;11.308;2023-05-29T06:25:46;22.10;87.10
55135;DHT22;41031;44.750;11.308;2023-05-29T06:28:14;22.20;87.20
55135;DHT22;41031;44.750;11.308;2023-05-29T06:30:41;22.40;87.50
55135;DHT22;41031;44.750;11.308;2023-05-29T06:33:12;22.50;86.60
55135;DHT22;41031;44.750;11.308;2023-05-29T06:35:40;22.70;86.10
55135;DHT22;41031;44.750;11.308;2023-05-29T06:38:08;22.80;86.20
55135;DHT22;41031;44.750;11.308;2023-05-29T06:40:36;23.10;86.20
55135;DHT22;41031;44.750;11.308;2023-05-29T06:43:03;23.20;84.20
55135;DHT22;41031;44.750;11.308;2023-05-29T06:45:45;23.30;82.60
55135;DHT22;41031;44.750;11.308;2023-05-29T06:48:12;23.40;81.70
55135;DHT22;41031;44.750;11.308;2023-05-29T06:50:41;23.50;81.90
55135;DHT22;41031;44.750;11.308;2023-05-29T06:53:27;23.60;80.70
55135;DHT22;41031;44.750;11.308;2023-05-29T06:55:56;23.70;80.50
55135;DHT22;41031;44.750;11.308;2023-05-29T06:58:23;23.80;78.40
55135;DHT22;41031;44.750;11.308;2023-05-29T07:00:50;23.90;78.70
55135;DHT22;41031;44.750;11.308;2023-05-29T07:03:23;23.90;78.10
55135;DHT22;41031;44.750;11.308;2023-05-29T07:05:52;24.10;78.30
55135;DHT22;41031;44.750;11.308;2023-05-29T07:08:20;24.10;78.00
55135;DHT22;41031;44.750;11.308;2023-05-29T07:10:47;24.30;78.30
55135;DHT22;41031;44.750;11.308;2023-05-29T07:13:17;24.40;77.00
55135;DHT22;41031;44.750;11.308;2023-05-29T07:15:45;24.60;77.30
55135;DHT22;41031;44.750;11.308;2023-05-29T07:18:13;24.80;77.40
55135;DHT22;41031;44.750;11.308;2023-05-29T07:20:41;24.90;75.80
55135;DHT22;41031;44.750;11.308;2023-05-29T07:23:12;25.00;75.80
55135;DHT22;41031;44.750;11.308;2023-05-29T07:25:39;25.00;75.50
55135;DHT22;41031;44.750;11.308;2023-05-29T07:28:06;25.10;74.70
55135;DHT22;41031;44.750;11.308;2023-05-29T07:30:48;25.20;75.00
55135;DHT22;41031;44.750;11.308;2023-05-29T07:33:15;25.40;74.50
55135;DHT22;41031;44.750;11.308;2023-05-29T07:35:43;25.50;74.60
55135;DHT22;41031;44.750;11.308;2023-05-29T07:38:10;25.60;73.90
55135;DHT22;41031;44.750;11.308;2023-05-29T07:40:39;25.70;72.50
55135;DHT22;41031;44.750;11.308;2023-05-29T07:43:25;25.70;72.00
55135;DHT22;41031;44.750;11.308;2023-05-29T07:45:56;25.70;70.40
55135;DHT22;41031;44.750;11.308;2023-05-29T07:48:23;25.70;69.50
55135;DHT22;41031;44.750;11.308;2023-05-29T07:50:51;25.70;70.50
55135;DHT22;41031;44.750;11.308;2023-05-29T07:53:19;25.70;71.00
55135;DHT22;41031;44.750;11.308;2023-05-29T07:55:48;25.70;70.40
55135;DHT22;41031;44.750;11.308;2023-05-29T07:58:16;25.70;68.80
55135;DHT22;41031;44.750;11.308;2023-05-29T08:00:45;25.70;69.20
55135;DHT22;41031;44.750;11.308;2023-05-29T08:03:14;25.70;71.60
55135;DHT22;41031;44.750;11.308;2023-05-29T08:05:59;25.80;71.90
55135;DHT22;41031;44.750;11.308;2023-05-29T08:08:27;25.90;70.50
55135;DHT22;41031;44.750;11.308;2023-05-29T08:10:54;26.00;68.80
55135;DHT22;41031;44.750;11.308;2023-05-29T08:13:22;26.00;68.70
55135;DHT22;41031;44.750;11.308;2023-05-29T08:15:49;26.00;69.10
55135;DHT22;41031;44.750;11.308;2023-05-29T08:18:16;26.10;70.30
55135;DHT22;41031;44.750;11.308;2023-05-29T08:20:43;26.20;69.40
55135;DHT22;41031;44.750;11.308;2023-05-29T08:23:11;26.30;68.40
55135;DHT22;41031;44.750;11.308;2023-05-29T08:25:38;26.30;68.70
55135;DHT22;41031;44.750;11.308;2023-05-29T08:28:05;26.30;66.70
55135;DHT22;41031;44.750;11.308;2023-05-29T08:30:32;26.30;68.70
55135;DHT22;41031;44.750;11.308;2023-05-29T08:32:59;26.40;67.90
55135;DHT22;41031;44.750;11.308;2023-05-29T08:35:26;26.50;69.10
55135;DHT22;41031;44.750;11.308;2023-05-29T08:37:54;26.60;69.00
55135;DHT22;41031;44.750;11.308;2023-05-29T08:40:21;26.70;69.50
55135;DHT22;41031;44.750;11.308;2023-05-29T08:42:58;26.90;69.70
55135;DHT22;41031;44.750;11.308;2023-05-29T08:45:28;27.00;67.50
55135;DHT22;41031;44.750;11.308;2023-05-29T08:47:58;27.10;67.30
55135;DHT22;41031;44.750;11.308;2023-05-29T08:50:27;27.10;67.90
55135;DHT22;41031;44.750;11.308;2023-05-29T08:52:54;27.20;67.10
55135;DHT22;41031;44.750;11.308;2023-05-29T08:55:23;27.20;66.40
55135;DHT22;41031;44.750;11.308;2023-05-29T08:57:50;27.20;66.10
55135;DHT22;41031;44.750;11.308;2023-05-29T09:00:17;27.40;66.40
55135;DHT22;41031;44.750;11.308;2023-05-29T09:02:47;27.50;66.60
55135;DHT22;41031;44.750;11.308;2023-05-29T09:05:14;27.70;67.10
55135;DHT22;41031;44.750;11.308;2023-05-29T09:07:41;27.90;67.20
55135;DHT22;41031;44.750;11.308;2023-05-29T09:10:09;28.10;67.10
55135;DHT22;41031;44.750;11.308;2023-05-29T09:12:36;28.20;63.70
55135;DHT22;41031;44.750;11.308;2023-05-29T09:15:17;28.20;62.40
55135;DHT22;41031;44.750;11.308;2023-05-29T09:17:52;28.20;61.90
55135;DHT22;41031;44.750;11.308;2023-05-29T09:20:21;28.20;62.80
55135;DHT22;41031;44.750;11.308;2023-05-29T09:23:02;28.30;61.30
55135;DHT22;41031;44.750;11.308;2023-05-29T09:25:32;28.30;61.80
55135;DHT22;41031;44.750;11.308;2023-05-29T09:28:04;28.30;62.10
55135;DHT22;41031;44.750;11.308;2023-05-29T09:30:46;28.30;60.70
55135;DHT22;41031;44.750;11.308;2023-05-29T09:33:15;28.30;60.90
55135;DHT22;41031;44.750;11.308;2023-05-29T09:35:44;28.30;60.90
55135;DHT22;41031;44.750;11.308;2023-05-29T09:38:14;28.40;61.40
55135;DHT22;41031;44.750;11.308;2023-05-29T09:41:04;28.40;60.80
55135;DHT22;41031;44.750;11.308;2023-05-29T09:43:31;28.50;59.50
55135;DHT22;41031;44.750;11.308;2023-05-29T09:46:01;28.60;60.00
55135;DHT22;41031;44.750;11.308;2023-05-29T09:48:29;28.70;60.30
55135;DHT22;41031;44.750;11.308;2023-05-29T09:50:57;28.70;59.20
55135;DHT22;41031;44.750;11.308;2023-05-29T09:53:27;28.70;57.90
55135;DHT22;41031;44.750;11.308;2023-05-29T09:55:56;28.60;60.20
55135;DHT22;41031;44.750;11.308;2023-05-29T09:58:25;28.60;61.90
55135;DHT22;41031;44.750;11.308;2023-05-29T10:00:52;28.60;59.80
55135;DHT22;41031;44.750;11.308;2023-05-29T10:03:20;28.60;61.60
55135;DHT22;41031;44.750;11.308;2023-05-29T10:05:54;28.70;60.90
55135;DHT22;41031;44.750;11.308;2023-05-29T10:08:26;28.80;58.90
55135;DHT22;41031;44.750;11.308;2023-05-29T10:11:01;28.70;58.70
55135;DHT22;41031;44.750;11.308;2023-05-29T10:13:39;28.70;60.10
55135;DHT22;41031;44.750;11.308;2023-05-29T10:16:10;28.70;61.50
55135;DHT22;41031;44.750;11.308;2023-05-29T10:18:44;28.70;62.20
55135;DHT22;41031;44.750;11.308;2023-05-29T10:21:16;28.90;61.10
55135;DHT22;41031;44.750;11.308;2023-05-29T10:23:48;29.10;60.40
55135;DHT22;41031;44.750;11.308;2023-05-29T10:26:26;29.30;59.70
55135;DHT22;41031;44.750;11.308;2023-05-29T10:31:38;29.10;59.30
55135;DHT22;41031;44.750;11.308;2023-05-29T10:34:20;29.10;57.90
55135;DHT22;41031;44.750;11.308;2023-05-29T10:36:59;29.10;58.00
55135;DHT22;41031;44.750;11.308;2023-05-29T10:39:29;29.20;55.70
55135;DHT22;41031;44.750;11.308;2023-05-29T10:41:56;29.20;57.00
55135;DHT22;41031;44.750;11.308;2023-05-29T10:47:04;29.00;55.90
55135;DHT22;41031;44.750;11.308;2023-05-29T10:49:31;28.90;57.40
55135;DHT22;41031;44.750;11.308;2023-05-29T10:51:58;28.90;57.30
55135;DHT22;41031;44.750;11.308;2023-05-29T10:54:26;29.00;57.50
55135;DHT22;41031;44.750;11.308;2023-05-29T10:56:58;29.00;57.30
55135;DHT22;41031;44.750;11.308;2023-05-29T10:59:27;29.10;57.60
55135;DHT22;41031;44.750;11.308;2023-05-29T11:01:57;29.20;58.30
55135;DHT22;41031;44.750;11.308;2023-05-29T11:04:25;29.20;55.60
55135;DHT22;41031;44.750;11.308;2023-05-29T11:06:53;29.30;56.40
55135;DHT22;41031;44.750;11.308;2023-05-29T11:09:34;29.30;56.00
55135;DHT22;41031;44.750;11.308;2023-05-29T11:12:24;29.30;55.90
55135;DHT22;41031;44.750;11.308;2023-05-29T11:15:05;29.30;55.90
55135;DHT22;41031;44.750;11.308;2023-05-29T11:17:44;29.30;56.20
55135;DHT22;41031;44.750;11.308;2023-05-29T11:21:04;29.40;55.80
55135;DHT22;41031;44.750;11.308;2023-05-29T11:23:24;29.40;55.00
55135;DHT22;41031;44.750;11.308;2023-05-29T11:25:55;29.50;55.30
55135;DHT22;41031;44.750;11.308;2023-05-29T11:28:23;29.50;53.80
55135;DHT22;41031;44.750;11.308;2023-05-29T11:30:50;29.50;55.80
55135;DHT22;41031;44.750;11.308;2023-05-29T11:33:24;29.60;56.60
55135;DHT22;41031;44.750;11.308;2023-05-29T11:35:59;29.60;56.10
55135;DHT22;41031;44.750;11.308;2023-05-29T11:38:27;29.70;56.20
55135;DHT22;41031;44.750;11.308;2023-05-29T11:40:55;29.70;54.20
55135;DHT22;41031;44.750;11.308;2023-05-29T11:43:22;29.80;54.30
55135;DHT22;41031;44.750;11.308;2023-05-29T11:45:49;30.00;54.30
55135;DHT22;41031;44.750;11.308;2023-05-29T11:48:16;30.00;53.50
55135;DHT22;41031;44.750;11.308;2023-05-29T11:50:43;30.00;53.90
55135;DHT22;41031;44.750;11.308;2023-05-29T11:53:11;29.90;53.00
55135;DHT22;41031;44.750;11.308;2023-05-29T11:55:38;29.80;52.70
55135;DHT22;41031;44.750;11.308;2023-05-29T11:58:05;29.80;53.20
55135;DHT22;41031;44.750;11.308;2023-05-29T12:00:34;29.90;52.80
55135;DHT22;41031;44.750;11.308;2023-05-29T12:03:02;29.90;52.50
55135;DHT22;41031;44.750;11.308;2023-05-29T12:05:47;30.00;52.50
55135;DHT22;41031;44.750;11.308;2023-05-29T12:08:16;30.00;53.10
55135;DHT22;41031;44.750;11.308;2023-05-29T12:10:47;30.10;53.70
55135;DHT22;41031;44.750;11.308;2023-05-29T12:13:15;30.10;53.60
55135;DHT22;41031;44.750;11.308;2023-05-29T12:15:44;30.10;53.50
55135;DHT22;41031;44.750;11.308;2023-05-29T12:18:11;30.20;53.40
55135;DHT22;41031;44.750;11.308;2023-05-29T12:20:39;30.30;53.30
55135;DHT22;41031;44.750;11.308;2023-05-29T12:23:06;30.40;52.90
55135;DHT22;41031;44.750;11.308;2023-05-29T12:25:34;30.30;51.90
55135;DHT22;41031;44.750;11.308;2023-05-29T12:28:04;30.40;52.80
55135;DHT22;41031;44.750;11.308;2023-05-29T12:30:37;30.30;52.80
55135;DHT22;41031;44.750;11.308;2023-05-29T12:33:05;30.30;52.40
55135;DHT22;41031;44.750;11.308;2023-05-29T12:35:33;30.30;51.80
55135;DHT22;41031;44.750;11.308;2023-05-29T12:38:09;30.10;52.40
55135;DHT22;41031;44.750;11.308;2023-05-29T12:40:36;30.00;50.70
55135;DHT22;41031;44.750;11.308;2023-05-29T12:43:06;30.00;52.80
55135;DHT22;41031;44.750;11.308;2023-05-29T12:45:34;30.10;50.90
55135;DHT22;41031;44.750;11.308;2023-05-29T12:48:03;30.00;51.10
55135;DHT22;41031;44.750;11.308;2023-05-29T12:50:32;30.00;50.40
55135;DHT22;41031;44.750;11.308;2023-05-29T12:53:01;29.90;51.00
55135;DHT22;41031;44.750;11.308;2023-05-29T12:55:30;29.90;52.10
55135;DHT22;41031;44.750;11.308;2023-05-29T12:58:00;29.90;51.90
55135;DHT22;41031;44.750;11.308;2023-05-29T13:00:27;29.90;51.50
55135;DHT22;41031;44.750;11.308;2023-05-29T13:02:54;29.90;50.00
55135;DHT22;41031;44.750;11.308;2023-05-29T13:05:21;29.80;50.60
55135;DHT22;41031;44.750;11.308;2023-05-29T13:07:51;29.70;51.40
55135;DHT22;41031;44.750;11.308;2023-05-29T13:10:19;29.70;50.50
55135;DHT22;41031;44.750;11.308;2023-05-29T13:12:48;29.60;50.40
55135;DHT22;41031;44.750;11.308;2023-05-29T13:15:15;29.60;51.30
55135;DHT22;41031;44.750;11.308;2023-05-29T13:17:42;29.60;50.90
55135;DHT22;41031;44.750;11.308;2023-05-29T13:20:13;29.60;50.70
55135;DHT22;41031;44.750;11.308;2023-05-29T13:22:41;29.60;50.40
55135;DHT22;41031;44.750;11.308;2023-05-29T13:25:11;29.60;51.10
55135;DHT22;41031;44.750;11.308;2023-05-29T13:27:43;29.70;51.80
55135;DHT22;41031;44.750;11.308;2023-05-29T13:30:11;29.80;50.50
55135;DHT22;41031;44.750;11.308;2023-05-29T13:32:40;29.80;49.00
55135;DHT22;41031;44.750;11.308;2023-05-29T13:35:07;29.70;45.70
55135;DHT22;41031;44.750;11.308;2023-05-29T13:37:36;29.50;47.00
55135;DHT22;41031;44.750;11.308;2023-05-29T13:40:05;29.50;48.40
55135;DHT22;41031;44.750;11.308;2023-05-29T13:42:32;29.40;48.00
55135;DHT22;41031;44.750;11.308;2023-05-29T13:44:59;29.30;49.00
55135;DHT22;41031;44.750;11.308;2023-05-29T13:47:26;29.20;49.30
55135;DHT22;41031;44.750;11.308;2023-05-29T13:49:55;29.20;49.50
55135;DHT22;41031;44.750;11.308;2023-05-29T13:52:22;29.20;49.60
55135;DHT22;41031;44.750;11.308;2023-05-29T13:54:49;29.20;48.90
55135;DHT22;41031;44.750;11.308;2023-05-29T13:57:16;29.20;49.40
55135;DHT22;41031;44.750;11.308;2023-05-29T13:59:44;29.20;50.90
55135;DHT22;41031;44.750;11.308;2023-05-29T14:02:11;29.20;50.60
55135;DHT22;41031;44.750;11.308;2023-05-29T14:04:39;28.90;49.50
55135;DHT22;41031;44.750;11.308;2023-05-29T14:07:06;28.70;49.50
55135;DHT22;41031;44.750;11.308;2023-05-29T14:09:33;28.70;49.60
55135;DHT22;41031;44.750;11.308;2023-05-29T14:12:00;28.60;48.50
55135;DHT22;41031;44.750;11.308;2023-05-29T14:14:29;28.70;50.20
55135;DHT22;41031;44.750;11.308;2023-05-29T14:16:55;28.70;49.00
55135;DHT22;41031;44.750;11.308;2023-05-29T14:19:22;28.70;49.50
55135;DHT22;41031;44.750;11.308;2023-05-29T14:21:51;28.70;47.00
55135;DHT22;41031;44.750;11.308;2023-05-29T14:24:18;28.70;48.20
55135;DHT22;41031;44.750;11.308;2023-05-29T14:26:45;28.70;50.10
55135;DHT22;41031;44.750;11.308;2023-05-29T14:29:14;28.80;49.30
55135;DHT22;41031;44.750;11.308;2023-05-29T14:31:42;28.80;49.00
55135;DHT22;41031;44.750;11.308;2023-05-29T14:34:11;28.70;50.00
55135;DHT22;41031;44.750;11.308;2023-05-29T14:36:38;28.70;50.50
55135;DHT22;41031;44.750;11.308;2023-05-29T14:39:06;28.70;50.60
55135;DHT22;41031;44.750;11.308;2023-05-29T14:41:33;28.70;49.70
55135;DHT22;41031;44.750;11.308;2023-05-29T14:44:02;28.70;50.20
55135;DHT22;41031;44.750;11.308;2023-05-29T14:46:29;28.70;50.40
55135;DHT22;41031;44.750;11.308;2023-05-29T14:48:59;28.70;49.80
55135;DHT22;41031;44.750;11.308;2023-05-29T14:51:27;28.70;49.50
55135;DHT22;41031;44.750;11.308;2023-05-29T14:53:55;28.70;49.70
55135;DHT22;41031;44.750;11.308;2023-05-29T14:56:21;28.60;48.70
55135;DHT22;41031;44.750;11.308;2023-05-29T14:58:49;28.60;49.20
55135;DHT22;41031;44.750;11.308;2023-05-29T15:01:17;28.60;49.70
55135;DHT22;41031;44.750;11.308;2023-05-29T15:03:45;28.50;50.40
55135;DHT22;41031;44.750;11.308;2023-05-29T15:06:12;28.50;49.00
55135;DHT22;41031;44.750;11.308;2023-05-29T15:08:40;28.40;48.90
55135;DHT22;41031;44.750;11.308;2023-05-29T15:11:10;28.40;49.00
55135;DHT22;41031;44.750;11.308;2023-05-29T15:13:39;28.40;49.50
55135;DHT22;41031;44.750;11.308;2023-05-29T15:16:06;28.40;49.90
55135;DHT22;41031;44.750;11.308;2023-05-29T15:18:34;28.30;48.40
55135;DHT22;41031;44.750;11.308;2023-05-29T15:21:02;28.30;48.90
55135;DHT22;41031;44.750;11.308;2023-05-29T15:23:30;28.30;49.10
55135;DHT22;41031;44.750;11.308;2023-05-29T15:25:57;28.30;48.00
55135;DHT22;41031;44.750;11.308;2023-05-29T15:28:24;28.20;48.60
55135;DHT22;41031;44.750;11.308;2023-05-29T15:30:51;28.20;49.90
55135;DHT22;41031;44.750;11.308;2023-05-29T15:33:18;28.20;49.80
55135;DHT22;41031;44.750;11.308;2023-05-29T15:35:46;28.20;50.60
55135;DHT22;41031;44.750;11.308;2023-05-29T15:38:13;28.10;50.10
55135;DHT22;41031;44.750;11.308;2023-05-29T15:40:40;28.10;49.50
55135;DHT22;41031;44.750;11.308;2023-05-29T15:43:08;28.10;50.80
55135;DHT22;41031;44.750;11.308;2023-05-29T15:45:39;28.00;51.90